Terminal Aerodrome Forecast
Issued by NWS

Home | Current Version | Previous Version | Text Only | Print | Product List | Glossary On
Versions: 1 2 3 4 5 6 7 8 9 10 11 12 13 14 15 16 17 18 19
000
FTUS43 KSGF 240500
TAFBBG
TAF
KBBG 240528Z 2406/2506 13011KT P6SM VCSH SCT050 OVC100
      WS020/18035KT
     FM240700 14010G18KT 6SM -SHRA BR VCTS SCT030CB OVC050
      WS020/18035KT
      TEMPO 2408/2412 4SM -TSRA BR SCT015 OVC025CB
     FM241200 15008KT 4SM -RA BR VCTS OVC020CB
     FM241800 15013KT 6SM -SHRA BR VCTS OVC030CB
      TEMPO 2423/2503 4SM -TSRA OVC020CB=

USA.gov is the U.S. government's official web portal to all federal, state and local government web resources and services.